Terminal Aerodrome Forecast
Issued by NWS Sterling, VA

Current Version | Previous Version | Graphics & Text | Print | Product List | Glossary On
Versions: 1 2 3 4 5 6 7 8 9 10 11 12 13 14 15 16 17 18 19 20 21 22 23 24 25
000
FTUS41 KLWX 172101 AAA
TAFIAD
TAF AMD
KIAD 172101Z 1721/1824 30007KT P6SM FEW150 SCT250
     FM172200 VRB03KT P6SM FEW150 BKN250
     FM180700 18007KT P6SM SCT150 BKN250
     FM181200 19012KT P6SM SCT140 OVC250=

USA.gov is the U.S. government's official web portal to all federal, state and local government web resources and services.